createdAt,value
2023-04-02T00:00:35.003Z,85.11
2023-04-02T00:03:21.724Z,84.97
2023-04-02T00:05:51.585Z,85.04
2023-04-02T00:08:40.446Z,85.15
2023-04-02T00:11:08.518Z,85.14
2023-04-02T00:13:40.692Z,85.12
2023-04-02T00:16:12.925Z,85.16
2023-04-02T00:18:47.956Z,84.91
2023-04-02T00:21:30.619Z,84.77
2023-04-02T00:24:01.232Z,84.67
2023-04-02T00:26:42.542Z,84.57
2023-04-02T00:29:11.965Z,84.73
2023-04-02T00:31:45.439Z,84.50
2023-04-02T00:34:22.994Z,84.38
2023-04-02T00:36:51.407Z,84.27
2023-04-02T00:39:25.241Z,84.15
2023-04-02T00:42:04.088Z,83.96
2023-04-02T00:44:42.577Z,83.86
2023-04-02T00:47:18.442Z,83.85
2023-04-02T00:49:45.573Z,83.84
2023-04-02T00:52:19.903Z,83.76
2023-04-02T00:54:56.155Z,83.73
2023-04-02T00:57:25.695Z,83.81
2023-04-02T01:00:19.455Z,83.77
2023-04-02T01:03:12.680Z,83.69
2023-04-02T01:05:41.864Z,83.70
2023-04-02T01:08:27.293Z,83.64
2023-04-02T01:11:18.182Z,83.60
2023-04-02T01:13:54.485Z,83.63
2023-04-02T01:16:29.894Z,83.60
2023-04-02T01:19:13.166Z,83.64
2023-04-02T01:22:00.734Z,83.71
2023-04-02T01:24:33.248Z,83.78
2023-04-02T01:27:04.139Z,83.81
2023-04-02T01:29:37.797Z,83.75
2023-04-02T01:32:06.874Z,83.75
2023-04-02T01:34:35.724Z,83.67
2023-04-02T01:37:27.045Z,83.58
2023-04-02T01:40:21.970Z,83.51
2023-04-02T01:43:07.361Z,83.44
2023-04-02T01:45:34.508Z,83.48
2023-04-02T01:48:06.422Z,83.58
2023-04-02T01:50:38.470Z,83.53
2023-04-02T01:53:12.695Z,83.43
2023-04-02T01:55:43.708Z,83.41
2023-04-02T01:58:13.181Z,83.38
2023-04-02T02:00:52.430Z,83.37
2023-04-02T02:03:19.959Z,83.32
2023-04-02T02:05:46.675Z,83.24
2023-04-02T02:08:38.655Z,83.24
2023-04-02T02:11:07.199Z,83.26
2023-04-02T02:13:36.189Z,83.25
2023-04-02T02:16:03.941Z,83.22
2023-04-02T02:18:31.049Z,83.25
2023-04-02T02:21:00.499Z,83.21
2023-04-02T02:23:29.523Z,83.20
2023-04-02T02:25:56.444Z,83.20
2023-04-02T02:28:28.747Z,83.21
2023-04-02T02:31:03.412Z,83.13
2023-04-02T02:33:42.927Z,83.06
2023-04-02T02:36:52.746Z,83.07
2023-04-02T02:39:47.360Z,83.09
2023-04-02T02:42:20.940Z,83.09
2023-04-02T02:44:48.693Z,82.91
2023-04-02T02:47:31.982Z,82.60
2023-04-02T02:50:03.314Z,82.17
2023-04-02T02:52:37.987Z,82.02
2023-04-02T02:55:15.270Z,81.87
2023-04-02T02:57:51.032Z,81.69
2023-04-02T03:00:19.395Z,81.68
2023-04-02T03:02:47.575Z,81.57
2023-04-02T03:05:20.574Z,81.27
2023-04-02T03:07:51.088Z,81.29
2023-04-02T03:10:24.420Z,81.32
2023-04-02T03:13:00.173Z,81.37
2023-04-02T03:15:47.508Z,81.39
2023-04-02T03:18:22.619Z,81.39
2023-04-02T03:20:52.003Z,81.43
2023-04-02T03:23:25.892Z,81.42
2023-04-02T03:26:10.955Z,81.36
2023-04-02T03:28:44.968Z,81.32
2023-04-02T03:31:35.042Z,81.33
2023-04-02T03:34:11.207Z,81.37
2023-04-02T03:36:47.497Z,81.36
2023-04-02T03:39:25.602Z,81.39
2023-04-02T03:42:05.144Z,81.39
2023-04-02T03:44:44.270Z,81.36
2023-04-02T03:47:28.493Z,81.39
2023-04-02T03:50:07.033Z,81.40
2023-04-02T03:52:36.849Z,81.48
2023-04-02T03:55:17.309Z,81.44
2023-04-02T03:58:04.594Z,81.48
2023-04-02T04:00:37.680Z,81.47
2023-04-02T04:03:11.163Z,81.52
2023-04-02T04:05:43.570Z,81.55
2023-04-02T04:08:20.285Z,81.58
2023-04-02T04:10:52.528Z,81.62
2023-04-02T04:13:28.679Z,81.60
2023-04-02T04:16:03.132Z,81.63
2023-04-02T04:18:38.701Z,81.66
2023-04-02T04:21:14.912Z,81.71
2023-04-02T04:23:49.846Z,81.73
2023-04-02T04:26:34.322Z,81.71
2023-04-02T04:29:19.006Z,81.70
2023-04-02T04:31:46.593Z,81.75
2023-04-02T04:34:19.008Z,81.77
2023-04-02T04:36:54.243Z,81.88
2023-04-02T04:39:29.094Z,81.97
2023-04-02T04:42:00.051Z,82.04
2023-04-02T04:44:55.005Z,82.11
2023-04-02T04:47:59.680Z,82.10
2023-04-02T04:50:38.009Z,82.11
2023-04-02T04:53:07.011Z,82.18
2023-04-02T04:55:39.392Z,82.17
2023-04-02T04:58:31.276Z,82.21
2023-04-02T05:01:01.138Z,82.21
2023-04-02T05:03:34.016Z,82.25
2023-04-02T05:06:10.819Z,82.23
2023-04-02T05:08:43.572Z,82.29
2023-04-02T05:11:18.947Z,82.24
2023-04-02T05:13:54.445Z,82.18
2023-04-02T05:16:40.868Z,82.10
2023-04-02T05:19:23.287Z,82.10
2023-04-02T05:21:59.572Z,82.04
2023-04-02T05:24:28.772Z,81.67
2023-04-02T05:27:02.750Z,81.45
2023-04-02T05:29:36.327Z,81.38
2023-04-02T05:32:13.253Z,81.37
2023-04-02T05:34:44.921Z,81.38
2023-04-02T05:37:23.817Z,81.32
2023-04-02T05:39:56.293Z,81.32
2023-04-02T05:42:27.030Z,81.33
2023-04-02T05:45:04.372Z,81.36
2023-04-02T05:47:32.678Z,81.28
2023-04-02T05:50:09.446Z,81.16
2023-04-02T05:52:42.222Z,81.11
2023-04-02T05:55:34.267Z,81.07
2023-04-02T06:01:28.733Z,81.23
2023-04-02T06:04:05.715Z,81.29
2023-04-02T06:06:44.536Z,81.32
2023-04-02T06:09:26.949Z,81.47
2023-04-02T06:12:04.098Z,81.48
2023-04-02T06:14:30.573Z,81.51
2023-04-02T06:16:57.096Z,81.53
2023-04-02T06:19:30.952Z,81.46
2023-04-02T06:22:00.130Z,81.35
2023-04-02T06:24:29.704Z,81.37
2023-04-02T06:27:05.938Z,81.27
2023-04-02T06:29:41.987Z,81.16
2023-04-02T06:32:11.398Z,81.07
2023-04-02T06:34:40.710Z,80.98
2023-04-02T06:37:21.341Z,80.76
2023-04-02T06:39:48.034Z,80.60
2023-04-02T06:42:25.956Z,80.50
2023-04-02T06:44:53.462Z,80.39
2023-04-02T06:47:25.746Z,80.14
2023-04-02T06:50:03.426Z,80.06
2023-04-02T06:52:45.846Z,80.03
2023-04-02T06:55:38.304Z,79.95
2023-04-02T06:58:05.015Z,79.89
2023-04-02T07:00:40.347Z,79.65
2023-04-02T07:03:24.155Z,79.56
2023-04-02T07:05:51.528Z,79.50
2023-04-02T07:08:17.956Z,79.56
2023-04-02T07:10:44.740Z,79.55
2023-04-02T07:13:16.482Z,79.40
2023-04-02T07:15:48.168Z,79.00
2023-04-02T07:18:31.823Z,78.66
2023-04-02T07:20:58.400Z,78.59
2023-04-02T07:23:25.948Z,78.60
2023-04-02T07:25:54.215Z,78.47
2023-04-02T07:28:23.019Z,78.72
2023-04-02T07:30:50.613Z,78.47
2023-04-02T07:33:20.480Z,78.18
2023-04-02T07:35:48.289Z,78.29
2023-04-02T07:38:14.843Z,78.40
2023-04-02T07:40:41.351Z,78.50
2023-04-02T07:43:27.123Z,78.39
2023-04-02T07:45:53.624Z,78.36
2023-04-02T07:48:20.042Z,78.38
2023-04-02T07:50:46.569Z,78.37
2023-04-02T07:53:41.196Z,78.48
2023-04-02T07:56:07.710Z,78.35
2023-04-02T07:58:34.095Z,78.23
2023-04-02T08:01:03.906Z,78.21
2023-04-02T08:03:30.686Z,78.05
2023-04-02T08:05:58.414Z,78.04
2023-04-02T08:08:26.054Z,78.02
2023-04-02T08:10:52.460Z,77.81
2023-04-02T08:13:18.922Z,77.54
2023-04-02T08:15:45.455Z,76.69
2023-04-02T08:18:11.889Z,76.67
2023-04-02T08:20:38.941Z,76.43
2023-04-02T08:23:13.039Z,76.76
2023-04-02T08:25:39.792Z,76.21
2023-04-02T08:28:06.350Z,76.33
2023-04-02T08:30:32.848Z,75.95
2023-04-02T08:32:59.343Z,75.58
2023-04-02T08:35:26.385Z,74.73
2023-04-02T08:37:52.854Z,74.54
2023-04-02T08:40:41.213Z,73.84
2023-04-02T08:43:23.760Z,73.92
2023-04-02T08:46:08.259Z,73.95
2023-04-02T08:48:38.332Z,73.60
2023-04-02T08:51:07.653Z,73.20
2023-04-02T08:53:38.723Z,73.27
2023-04-02T08:56:38.152Z,73.27
2023-04-02T08:59:26.675Z,73.51
2023-04-02T09:02:09.182Z,73.30
2023-04-02T09:04:36.306Z,73.66
2023-04-02T09:07:03.677Z,72.93
2023-04-02T09:09:36.384Z,72.72
2023-04-02T09:12:04.973Z,73.24
2023-04-02T09:14:42.207Z,73.36
2023-04-02T09:17:23.896Z,73.06
2023-04-02T09:20:17.420Z,73.16
2023-04-02T09:22:46.621Z,73.56
2023-04-02T09:25:20.188Z,73.44
2023-04-02T09:27:52.738Z,73.84
2023-04-02T09:30:31.482Z,73.91
2023-04-02T09:33:01.971Z,73.79
2023-04-02T09:35:31.683Z,73.91
2023-04-02T09:38:32.340Z,74.29
2023-04-02T09:41:06.280Z,74.45
2023-04-02T09:43:37.741Z,74.48
2023-04-02T09:46:16.211Z,74.37
2023-04-02T09:48:49.131Z,74.42
2023-04-02T09:51:20.726Z,74.54
2023-04-02T09:53:48.645Z,74.62
2023-04-02T09:56:18.377Z,74.68
2023-04-02T09:59:01.297Z,74.61
2023-04-02T10:01:36.292Z,74.69
2023-04-02T10:04:04.673Z,74.69
2023-04-02T10:06:33.994Z,74.89
2023-04-02T10:09:21.534Z,74.96
2023-04-02T10:11:50.201Z,74.91
2023-04-02T10:14:33.736Z,74.86
2023-04-02T10:17:27.493Z,74.86
2023-04-02T10:20:00.646Z,74.83
2023-04-02T10:22:27.602Z,74.93
2023-04-02T10:24:54.442Z,74.82
2023-04-02T10:27:28.904Z,74.68
2023-04-02T10:30:18.540Z,74.45
2023-04-02T10:33:03.025Z,74.53
2023-04-02T10:36:01.188Z,74.55
2023-04-02T10:38:42.034Z,74.68
2023-04-02T10:41:51.613Z,74.60
2023-04-02T10:44:42.983Z,74.77
2023-04-02T10:47:19.119Z,74.39
2023-04-02T10:49:48.319Z,74.05
2023-04-02T10:52:28.680Z,73.75
2023-04-02T10:55:01.600Z,73.60
2023-04-02T10:57:36.250Z,74.08
2023-04-02T11:00:13.565Z,74.33
2023-04-02T11:02:58.818Z,74.33
2023-04-02T11:05:44.177Z,74.41
2023-04-02T11:08:30.611Z,74.41
2023-04-02T11:11:07.471Z,74.31
2023-04-02T11:13:44.841Z,74.49
2023-04-02T11:16:14.848Z,74.36
2023-04-02T11:18:42.333Z,74.16
2023-04-02T11:21:24.398Z,73.82
2023-04-02T11:23:57.733Z,73.79
2023-04-02T11:26:40.700Z,73.17
2023-04-02T11:29:21.782Z,72.84
2023-04-02T11:31:51.595Z,72.70
2023-04-02T11:34:40.266Z,72.72
2023-04-02T11:37:30.776Z,72.46
2023-04-02T11:39:59.451Z,72.13
2023-04-02T11:42:34.803Z,72.70
2023-04-02T11:45:23.815Z,72.74
2023-04-02T11:47:59.422Z,72.65
2023-04-02T11:50:30.430Z,72.64
2023-04-02T11:53:04.890Z,72.72
2023-04-02T11:55:34.455Z,72.72
2023-04-02T11:58:16.197Z,73.14
2023-04-02T12:00:51.565Z,72.73
2023-04-02T12:03:18.607Z,72.62
2023-04-02T12:06:01.744Z,72.79
2023-04-02T12:09:08.037Z,71.94
2023-04-02T12:11:37.590Z,72.13
2023-04-02T12:14:30.129Z,72.36
2023-04-02T12:16:57.862Z,72.56
2023-04-02T12:19:26.033Z,72.64
2023-04-02T12:21:53.324Z,72.72
2023-04-02T12:24:23.438Z,72.86
2023-04-02T12:27:21.821Z,72.79
2023-04-02T12:29:51.928Z,72.91
2023-04-02T12:32:28.976Z,72.90
2023-04-02T12:34:57.974Z,72.75
2023-04-02T12:37:27.610Z,72.57
2023-04-02T12:40:00.583Z,72.18
2023-04-02T12:42:37.076Z,71.95
2023-04-02T12:45:06.210Z,71.62
2023-04-02T12:47:33.613Z,71.23
2023-04-02T12:50:01.508Z,71.10
2023-04-02T12:52:28.900Z,71.29
2023-04-02T12:54:58.741Z,71.40
2023-04-02T12:57:25.269Z,71.59
2023-04-02T12:59:56.448Z,71.69
2023-04-02T13:02:26.141Z,71.74
2023-04-02T13:05:00.041Z,71.93
2023-04-02T13:07:30.144Z,71.94
2023-04-02T13:09:59.121Z,72.07
2023-04-02T13:12:32.929Z,72.20
2023-04-02T13:15:01.305Z,72.20
2023-04-02T13:17:47.421Z,72.21
2023-04-02T13:20:29.068Z,72.11
2023-04-02T13:22:57.079Z,72.07
2023-04-02T13:25:34.648Z,72.34
2023-04-02T13:28:01.775Z,72.49
2023-04-02T13:30:28.761Z,72.29
2023-04-02T13:32:55.889Z,72.41
2023-04-02T13:35:23.188Z,72.57
2023-04-02T13:37:49.628Z,72.57
2023-04-02T13:40:18.636Z,72.52
2023-04-02T13:42:46.717Z,72.57
2023-04-02T13:45:23.639Z,72.63
2023-04-02T13:47:51.022Z,72.78
2023-04-02T13:50:20.822Z,72.84
2023-04-02T13:52:50.515Z,72.89
2023-04-02T13:55:21.936Z,73.02
2023-04-02T13:57:49.856Z,72.97
2023-04-02T14:00:17.633Z,72.96
2023-04-02T14:02:51.072Z,72.91
2023-04-02T14:05:36.499Z,72.97
2023-04-02T14:08:28.607Z,72.98
2023-04-02T14:11:07.669Z,72.91
2023-04-02T14:13:41.718Z,73.02
2023-04-02T14:16:37.790Z,73.12
2023-04-02T14:19:41.531Z,73.23
2023-04-02T14:22:36.372Z,73.26
2023-04-02T14:25:27.053Z,73.32
2023-04-02T14:28:10.978Z,73.27
2023-04-02T14:30:38.163Z,73.10
2023-04-02T14:33:20.574Z,73.19
2023-04-02T14:35:57.223Z,73.51
2023-04-02T14:38:39.920Z,73.69
2023-04-02T14:41:17.599Z,73.87
2023-04-02T14:43:50.487Z,74.03
2023-04-02T14:46:17.048Z,74.16
2023-04-02T14:48:59.048Z,74.32
2023-04-02T14:51:42.791Z,74.30
2023-04-02T14:54:25.793Z,74.34
2023-04-02T14:56:57.039Z,74.29
2023-04-02T14:59:36.336Z,74.41
2023-04-02T15:02:16.669Z,74.37
2023-04-02T15:04:56.705Z,74.50
2023-04-02T15:07:28.426Z,74.71
2023-04-02T15:10:07.028Z,74.84
2023-04-02T15:12:38.483Z,74.96
2023-04-02T15:15:24.378Z,75.12
2023-04-02T15:17:58.210Z,75.37
2023-04-02T15:20:25.553Z,75.55
2023-04-02T15:23:11.012Z,75.92
2023-04-02T15:26:17.236Z,76.31
2023-04-02T15:29:09.264Z,76.66
2023-04-02T15:31:43.282Z,77.06
2023-04-02T15:34:34.138Z,77.30
2023-04-02T15:37:06.656Z,77.76
2023-04-02T15:39:56.146Z,78.03
2023-04-02T15:43:01.411Z,77.87
2023-04-02T15:46:00.830Z,78.08
2023-04-02T15:48:36.972Z,78.12
2023-04-02T15:51:22.356Z,78.21
2023-04-02T15:54:27.239Z,78.33
2023-04-02T15:57:12.976Z,78.28
2023-04-02T15:59:42.171Z,78.24
2023-04-02T16:02:30.477Z,78.29
2023-04-02T16:05:04.216Z,78.28
2023-04-02T16:07:52.844Z,78.32
2023-04-02T16:10:42.071Z,78.41
2023-04-02T16:13:28.942Z,78.50
2023-04-02T16:16:15.068Z,78.62
2023-04-02T16:19:00.885Z,78.92
2023-04-02T16:21:36.834Z,79.05
2023-04-02T16:24:10.387Z,79.23
2023-04-02T16:26:54.273Z,79.29
2023-04-02T16:29:23.745Z,79.49
2023-04-02T16:32:05.036Z,79.54
2023-04-02T16:34:52.478Z,79.25
2023-04-02T16:37:45.619Z,79.33
2023-04-02T16:40:34.698Z,79.48
2023-04-02T16:43:18.377Z,79.62
2023-04-02T16:46:20.255Z,79.72
2023-04-02T16:49:01.196Z,79.93
2023-04-02T16:51:45.811Z,80.22
2023-04-02T16:54:24.039Z,80.33
2023-04-02T16:57:06.256Z,80.29
2023-04-02T16:59:35.396Z,80.27
2023-04-02T17:02:16.682Z,80.36
2023-04-02T17:05:05.910Z,80.21
2023-04-02T17:08:07.070Z,80.35
2023-04-02T17:10:51.923Z,80.27
2023-04-02T17:13:37.366Z,80.34
2023-04-02T17:16:10.613Z,80.39
2023-04-02T17:18:40.198Z,80.48
2023-04-02T17:21:10.441Z,80.60
2023-04-02T17:23:55.808Z,80.67
2023-04-02T17:26:34.086Z,80.74
2023-04-02T17:29:07.742Z,80.87
2023-04-02T17:31:35.196Z,81.03
2023-04-02T17:34:13.169Z,81.09
2023-04-02T17:37:14.371Z,81.03
2023-04-02T17:40:03.813Z,80.98
2023-04-02T17:42:51.994Z,80.92
2023-04-02T17:45:32.585Z,80.97
2023-04-02T17:48:29.575Z,81.10
2023-04-02T17:51:29.844Z,80.97
2023-04-02T17:54:11.035Z,80.98
2023-04-02T17:57:07.326Z,80.98
2023-04-02T17:59:42.298Z,81.06
2023-04-02T18:02:24.298Z,81.09
2023-04-02T18:04:56.606Z,81.21
2023-04-02T18:07:41.391Z,81.21
2023-04-02T18:10:35.826Z,81.22
2023-04-02T18:13:34.170Z,81.41
2023-04-02T18:16:06.430Z,81.28
2023-04-02T18:18:39.122Z,81.24
2023-04-02T18:21:21.154Z,81.22
2023-04-02T18:24:16.460Z,81.30
2023-04-02T18:27:04.828Z,81.40
2023-04-02T18:29:42.797Z,81.45
2023-04-02T18:32:38.901Z,81.43
2023-04-02T18:35:24.588Z,81.58
2023-04-02T18:38:15.998Z,81.73
2023-04-02T18:41:07.168Z,81.71
2023-04-02T18:43:57.362Z,81.81
2023-04-02T18:46:51.576Z,81.85
2023-04-02T18:49:42.940Z,81.88
2023-04-02T18:52:13.511Z,81.89
2023-04-02T18:54:49.128Z,81.87
2023-04-02T18:57:23.308Z,81.80
2023-04-02T19:00:01.780Z,81.74
2023-04-02T19:02:48.809Z,81.69
2023-04-02T19:05:44.019Z,81.67
2023-04-02T19:08:24.112Z,81.60
2023-04-02T19:11:04.593Z,81.62
2023-04-02T19:13:31.964Z,81.61
2023-04-02T19:16:16.976Z,81.62
2023-04-02T19:18:53.430Z,81.59
2023-04-02T19:21:45.893Z,81.55
2023-04-02T19:24:27.815Z,81.52
2023-04-02T19:27:13.178Z,81.63
2023-04-02T19:29:59.302Z,81.74
2023-04-02T19:32:53.833Z,81.74
2023-04-02T19:35:27.281Z,81.83
2023-04-02T19:38:32.839Z,81.83
2023-04-02T19:41:15.558Z,81.85
2023-04-02T19:43:42.425Z,81.88
2023-04-02T19:46:09.164Z,81.99
2023-04-02T19:48:46.916Z,82.03
2023-04-02T19:51:14.450Z,82.04
2023-04-02T19:53:43.984Z,82.08
2023-04-02T19:56:13.024Z,82.15
2023-04-02T19:58:39.506Z,82.19
2023-04-02T20:01:06.160Z,82.19
2023-04-02T20:03:33.142Z,82.18
2023-04-02T20:06:00.567Z,82.26
2023-04-02T20:08:27.824Z,82.41
2023-04-02T20:10:55.540Z,82.27
2023-04-02T20:13:22.105Z,82.37
2023-04-02T20:15:50.659Z,82.40
2023-04-02T20:18:18.042Z,82.72
2023-04-02T20:20:48.766Z,82.67
2023-04-02T20:23:16.354Z,82.66
2023-04-02T20:25:54.344Z,82.59
2023-04-02T20:28:22.251Z,82.56
2023-04-02T20:30:50.037Z,82.52
2023-04-02T20:33:22.113Z,82.51
2023-04-02T20:35:50.719Z,82.52
2023-04-02T20:38:18.137Z,82.53
2023-04-02T20:40:51.429Z,82.64
2023-04-02T20:43:18.356Z,82.72
2023-04-02T20:45:56.495Z,82.71
2023-04-02T20:48:25.148Z,82.66
2023-04-02T20:50:51.769Z,82.67
2023-04-02T20:53:18.388Z,82.65
2023-04-02T20:55:45.435Z,82.64
2023-04-02T20:58:14.680Z,82.66
2023-04-02T21:00:41.538Z,82.73
2023-04-02T21:03:09.463Z,82.78
2023-04-02T21:05:43.576Z,82.78
2023-04-02T21:08:10.434Z,83.01
2023-04-02T21:10:38.241Z,82.91
2023-04-02T21:13:04.985Z,82.99
2023-04-02T21:15:31.454Z,83.02
2023-04-02T21:17:58.122Z,83.03
2023-04-02T21:20:26.129Z,83.05
2023-04-02T21:22:53.503Z,83.04
2023-04-02T21:25:19.933Z,83.11
2023-04-02T21:27:46.338Z,83.08
2023-04-02T21:30:12.896Z,83.06
2023-04-02T21:32:39.294Z,82.97
2023-04-02T21:35:08.175Z,82.98
2023-04-02T21:37:35.918Z,83.01
2023-04-02T21:40:02.792Z,83.04
2023-04-02T21:42:29.605Z,83.21
2023-04-02T21:44:56.146Z,83.21
2023-04-02T21:47:23.026Z,83.29
2023-04-02T21:49:49.496Z,83.29
2023-04-02T21:52:16.532Z,83.25
2023-04-02T21:54:42.917Z,83.29
2023-04-02T21:57:09.371Z,83.32
2023-04-02T21:59:35.819Z,83.31
2023-04-02T22:02:02.303Z,83.25
2023-04-02T22:04:30.103Z,83.26
2023-04-02T22:06:56.969Z,83.32
2023-04-02T22:09:25.916Z,83.38
2023-04-02T22:11:58.072Z,83.50
2023-04-02T22:14:24.682Z,83.52
2023-04-02T22:16:51.519Z,83.48
2023-04-02T22:19:18.291Z,83.48
2023-04-02T22:21:45.631Z,83.44
2023-04-02T22:24:30.518Z,83.39
2023-04-02T22:26:56.896Z,83.33
2023-04-02T22:29:23.324Z,83.34
2023-04-02T22:31:49.780Z,83.39
2023-04-02T22:34:16.264Z,83.46
2023-04-02T22:36:42.715Z,83.58
2023-04-02T22:39:11.482Z,83.60
2023-04-02T22:41:37.911Z,83.60
2023-04-02T22:44:04.565Z,83.59
2023-04-02T22:46:50.085Z,83.60
2023-04-02T22:49:18.442Z,83.57
2023-04-02T22:52:05.478Z,83.56
2023-04-02T22:54:31.867Z,83.61
2023-04-02T22:56:58.279Z,83.74
2023-04-02T22:59:25.406Z,83.74
2023-04-02T23:01:51.987Z,83.70
2023-04-02T23:04:18.424Z,83.69
2023-04-02T23:06:45.116Z,83.71
2023-04-02T23:09:11.551Z,83.60
2023-04-02T23:11:37.950Z,83.63
2023-04-02T23:14:04.401Z,83.62
2023-04-02T23:16:30.812Z,83.73
2023-04-02T23:18:57.825Z,83.70
2023-04-02T23:21:25.350Z,83.73
2023-04-02T23:23:52.179Z,83.66
2023-04-02T23:26:22.123Z,83.59
2023-04-02T23:28:49.235Z,83.64
2023-04-02T23:31:18.400Z,83.68
2023-04-02T23:33:45.315Z,83.71
2023-04-02T23:36:26.975Z,83.75
2023-04-02T23:39:00.576Z,83.71
2023-04-02T23:41:27.928Z,83.68
2023-04-02T23:43:55.969Z,83.65
2023-04-02T23:46:23.407Z,83.64
2023-04-02T23:48:50.931Z,83.64
2023-04-02T23:51:17.845Z,83.67
2023-04-02T23:53:44.226Z,83.68
2023-04-02T23:56:11.051Z,83.70
2023-04-02T23:58:38.062Z,83.75
